Time;durP1;ratioP1;P1;durP2;ratioP2;P2;SDS_P1;SDS_P2;PMS_P1;PMS_P2;Temp;Humidity;BMP_temperature;BMP_pressure;BME280_temperature;BME280_humidity;BME280_pressure;Samples;Min_cycle;Max_cycle;Signal;HPM_P1;HPM_P2
2022/10/29 00:02:26;;;;;;;5.80;5.17;;;;;;;11.66;72.74;96001.13;5114864;28;20581;-76
2022/10/29 00:04:52;;;;;;;8.57;5.60;;;;;;;11.68;73.03;96008.91;5079004;28;20546;-76
2022/10/29 00:07:19;;;;;;;5.93;4.90;;;;;;;11.69;72.44;96003.53;5115122;28;20453;-76
2022/10/29 00:09:46;;;;;;;9.40;5.90;;;;;;;11.70;72.83;96007.84;5062398;28;20450;-76
2022/10/29 00:12:12;;;;;;;6.60;5.60;;;;;;;11.74;72.06;95998.78;5114584;28;20832;-76
2022/10/29 00:14:39;;;;;;;8.33;6.80;;;;;;;11.74;72.01;96004.03;5114889;28;20430;-77
2022/10/29 00:17:06;;;;;;;10.90;7.50;;;;;;;11.73;72.08;95999.72;5114549;28;20817;-77
2022/10/29 00:19:34;;;;;;;11.47;7.23;;;;;;;11.73;72.40;95991.84;5114203;28;20495;-76
2022/10/29 00:22:01;;;;;;;16.30;6.67;;;;;;;11.72;72.67;95992.78;5114779;28;20450;-76
2022/10/29 00:24:27;;;;;;;7.03;6.33;;;;;;;11.72;71.99;95998.06;5114541;28;20485;-76
2022/10/29 00:26:54;;;;;;;6.63;5.60;;;;;;;11.67;72.65;95992.28;5095352;28;20441;-76
2022/10/29 00:29:21;;;;;;;7.67;5.83;;;;;;;11.62;72.59;95989.16;5114509;28;20861;-76
2022/10/29 00:31:50;;;;;;;9.40;6.50;;;;;;;11.49;74.54;95983.91;5114069;28;20445;-77
2022/10/29 00:34:17;;;;;;;11.30;6.60;;;;;;;11.48;74.73;95986.66;5114357;28;20773;-76
2022/10/29 00:36:45;;;;;;;9.07;6.10;;;;;;;11.44;75.29;95979.94;5114424;28;20940;-76
2022/10/29 00:39:14;;;;;;;8.77;5.37;;;;;;;11.47;74.07;95974.47;5114168;28;20450;-76
2022/10/29 00:41:42;;;;;;;6.43;5.73;;;;;;;11.42;74.62;95977.41;5062116;28;20456;-76
2022/10/29 00:44:28;;;;;;;10.43;6.83;;;;;;;11.42;74.33;95972.16;5114275;28;20490;-76
2022/10/29 00:46:59;;;;;;;7.40;6.20;;;;;;;11.39;75.32;95966.28;5114032;28;20932;-76
2022/10/29 00:49:27;;;;;;;6.10;5.50;;;;;;;11.34;74.88;95965.78;5113945;28;20449;-76
2022/10/29 00:51:57;;;;;;;8.60;5.93;;;;;;;11.33;75.77;95966.72;5114113;28;20519;-76
2022/10/29 00:54:26;;;;;;;6.90;6.03;;;;;;;11.35;75.60;95964.84;5113806;28;20817;-77
2022/10/29 00:56:57;;;;;;;7.20;6.03;;;;;;;11.29;75.15;95967.91;5113666;28;20443;-77
2022/10/29 00:59:24;;;;;;;12.53;6.30;;;;;;;11.33;75.44;95964.94;5113904;28;20453;-77
2022/10/29 01:01:51;;;;;;;7.77;6.57;;;;;;;11.32;75.69;95965.03;5113654;28;20498;-76
2022/10/29 01:04:18;;;;;;;8.97;6.20;;;;;;;11.31;75.28;95968.63;5113510;28;20530;-77
2022/10/29 01:06:45;;;;;;;7.27;6.60;;;;;;;11.32;74.88;95965.03;5113690;28;20443;-76
2022/10/29 01:09:14;;;;;;;7.37;6.20;;;;;;;11.34;74.91;95966.63;5113614;28;20788;-76
2022/10/29 01:11:48;;;;;;;10.20;6.40;;;;;;;11.27;75.60;95962.72;5113449;28;20445;-77
2022/10/29 01:14:25;;;;;;;7.83;6.20;;;;;;;11.17;75.69;95967.78;5113695;28;21011;-76
2022/10/29 01:17:00;;;;;;;13.00;6.00;;;;;;;11.24;75.48;95962.94;5113658;28;20455;-76
2022/10/29 01:19:48;;;;;;;8.90;6.87;;;;;;;11.25;75.55;95954.09;5113434;28;20455;-76
2022/10/29 01:22:21;;;;;;;7.97;6.23;;;;;;;11.21;76.01;95951.81;5113729;28;20444;-77
2022/10/29 01:25:19;;;;;;;6.43;5.60;;;;;;;11.26;76.36;95949.69;5113081;28;20554;-76
2022/10/29 01:27:55;;;;;;;7.90;6.07;;;;;;;11.26;75.62;95941.81;5113507;28;20433;-77
2022/10/29 01:30:37;;;;;;;8.13;6.13;;;;;;;11.23;75.34;95944.66;5112720;28;20440;-77
2022/10/29 01:33:13;;;;;;;8.43;5.90;;;;;;;11.21;75.59;95936.03;5113437;28;20440;-76
2022/10/29 01:35:50;;;;;;;6.37;5.40;;;;;;;11.16;75.53;95939.00;5113095;28;20456;-76
2022/10/29 01:38:28;;;;;;;9.83;5.77;;;;;;;11.18;75.72;95931.84;5112936;28;20448;-76
2022/10/29 01:41:00;;;;;;;6.90;5.87;;;;;;;11.19;75.73;95928.28;5113133;28;20859;-76
2022/10/29 01:43:33;;;;;;;8.73;6.47;;;;;;;11.14;75.71;95936.47;5113003;28;20448;-76
2022/10/29 01:46:06;;;;;;;7.90;5.40;;;;;;;11.12;75.99;95938.38;5112771;28;20483;-76
2022/10/29 01:48:37;;;;;;;11.20;7.00;;;;;;;11.17;75.48;95935.41;5113119;28;20443;-76
2022/10/29 01:51:09;;;;;;;6.67;5.53;;;;;;;11.21;75.04;95928.16;5112866;28;20514;-76
2022/10/29 01:53:37;;;;;;;7.33;6.63;;;;;;;11.23;75.44;95929.72;5112756;28;20473;-76
2022/10/29 01:56:04;;;;;;;8.30;6.40;;;;;;;11.23;75.97;95934.16;5112885;28;20927;-76
2022/10/29 01:58:33;;;;;;;6.23;5.63;;;;;;;11.20;75.26;95929.13;5113064;28;20448;-76
2022/10/29 02:01:10;;;;;;;9.87;6.07;;;;;;;11.21;75.19;95934.25;5112662;28;20989;-76
2022/10/29 02:03:50;;;;;;;10.17;6.00;;;;;;;11.27;75.49;95933.81;5112540;28;20449;-76
2022/10/29 02:06:26;;;;;;;7.77;6.93;;;;;;;11.13;74.24;95926.94;5112523;28;20862;-76
2022/10/29 02:08:59;;;;;;;13.90;7.77;;;;;;;11.08;73.96;95934.28;5112425;28;20439;-76
2022/10/29 02:11:33;;;;;;;11.80;7.67;;;;;;;10.95;74.10;95930.81;5112410;28;20445;-77
2022/10/29 02:14:05;;;;;;;8.83;7.40;;;;;;;10.88;75.29;95934.84;5112832;28;20466;-76
2022/10/29 02:16:33;;;;;;;8.10;6.30;;;;;;;10.90;74.35;95935.56;5112243;28;20836;-76
2022/10/29 02:19:02;;;;;;;10.20;7.10;;;;;;;10.87;75.72;95922.66;5112768;28;20435;-76
2022/10/29 02:21:28;;;;;;;9.53;6.77;;;;;;;10.85;75.56;95924.53;5076450;28;20440;-76
2022/10/29 02:23:55;;;;;;;8.20;6.00;;;;;;;10.80;75.84;95910.91;5112314;28;20444;-76
2022/10/29 02:26:22;;;;;;;10.67;6.47;;;;;;;10.82;75.87;95906.38;5059955;28;20483;-76
2022/10/29 02:28:49;;;;;;;7.03;5.30;;;;;;;10.85;76.30;95919.28;5076633;28;20574;-76
2022/10/29 02:31:16;;;;;;;10.33;6.10;;;;;;;10.85;75.62;95906.16;5112323;28;20455;-76
2022/10/29 02:33:43;;;;;;;8.10;5.50;;;;;;;10.85;75.67;95909.63;5076416;28;20447;-76
2022/10/29 02:36:11;;;;;;;9.43;5.37;;;;;;;10.84;75.38;95907.94;5093060;28;20493;-76
2022/10/29 02:38:37;;;;;;;6.50;4.90;;;;;;;10.83;74.83;95913.31;5092913;28;20862;-76
2022/10/29 02:41:05;;;;;;;9.70;5.90;;;;;;;10.82;75.32;95909.00;5112114;28;20989;-76
2022/10/29 02:43:31;;;;;;;5.80;5.20;;;;;;;10.77;75.32;95908.50;5114782;28;20507;-76
2022/10/29 02:46:11;;;;;;;6.73;5.00;;;;;;;10.79;75.99;95906.59;5116723;28;20524;-76
2022/10/29 02:48:38;;;;;;;4.97;4.53;;;;;;;10.79;75.34;95899.56;5116895;28;20439;-76
2022/10/29 02:51:05;;;;;;;6.10;5.40;;;;;;;10.83;74.94;95910.69;5116812;28;20650;-76
2022/10/29 02:53:33;;;;;;;10.47;7.13;;;;;;;10.75;74.82;95907.75;5063583;28;20531;-76
2022/10/29 02:56:00;;;;;;;11.33;8.10;;;;;;;10.39;75.26;95914.56;5116102;28;20926;-76
2022/10/29 02:58:27;;;;;;;11.87;8.37;;;;;;;10.22;75.45;95907.00;5116397;28;20837;-76
2022/10/29 03:00:54;;;;;;;10.43;7.90;;;;;;;10.11;75.14;95912.06;5116178;28;20495;-76
2022/10/29 03:03:21;;;;;;;13.87;9.40;;;;;;;10.08;76.59;95914.91;5116513;28;20442;-76
2022/10/29 03:05:48;;;;;;;13.30;8.80;;;;;;;10.09;75.90;95921.81;5115790;28;20487;-76
2022/10/29 03:08:14;;;;;;;10.77;9.00;;;;;;;10.07;75.38;95915.84;5096939;28;20440;-76
2022/10/29 03:10:43;;;;;;;11.10;9.30;;;;;;;10.07;75.68;95921.09;5115903;28;20443;-75
2022/10/29 03:13:10;;;;;;;11.97;8.90;;;;;;;10.00;76.06;95920.66;5116266;28;20500;-76
2022/10/29 03:15:37;;;;;;;8.63;7.30;;;;;;;9.98;76.44;95927.78;5115835;28;20447;-76
2022/10/29 03:18:04;;;;;;;8.73;7.03;;;;;;;9.92;76.98;95918.56;5116002;28;20445;-76
2022/10/29 03:20:31;;;;;;;9.97;6.80;;;;;;;9.86;78.47;95910.25;5116134;28;20438;-76
2022/10/29 03:22:58;;;;;;;8.20;5.20;;;;;;;9.76;78.71;95907.38;5116195;28;20854;-76
2022/10/29 03:25:25;;;;;;;12.13;6.13;;;;;;;9.75;79.08;95912.72;5115670;28;20483;-76
2022/10/29 03:27:53;;;;;;;8.90;6.70;;;;;;;9.78;78.66;95915.97;5115483;28;20447;-76
2022/10/29 03:30:20;;;;;;;6.23;5.63;;;;;;;9.87;78.88;95909.31;5079559;28;20999;-76
2022/10/29 03:32:48;;;;;;;6.23;5.50;;;;;;;9.92;78.69;95904.59;5115650;28;20433;-76
2022/10/29 03:35:16;;;;;;;8.77;5.97;;;;;;;9.96;77.97;95894.75;5115580;28;20454;-76
2022/10/29 03:37:43;;;;;;;8.37;6.20;;;;;;;9.98;78.50;95895.47;5115790;28;20447;-76
2022/10/29 03:40:10;;;;;;;8.93;5.80;;;;;;;9.96;78.00;95894.75;5115312;28;20451;-76
2022/10/29 03:42:38;;;;;;;6.80;5.50;;;;;;;9.91;78.47;95885.41;5115549;28;20443;-76
2022/10/29 03:45:07;;;;;;;8.00;6.50;;;;;;;9.91;78.55;95885.41;5115292;28;20482;-76
2022/10/29 03:47:34;;;;;;;6.80;5.50;;;;;;;9.91;78.98;95884.56;5115256;28;20457;-76
2022/10/29 03:50:01;;;;;;;6.90;5.50;;;;;;;9.94;79.08;95879.13;5115705;28;20458;-76
2022/10/29 03:52:28;;;;;;;8.70;6.60;;;;;;;10.03;78.81;95893.41;5115392;28;20850;-76
2022/10/29 03:54:54;;;;;;;7.53;6.17;;;;;;;10.04;78.11;95882.81;5114702;28;20782;-75
2022/10/29 03:57:21;;;;;;;8.27;7.50;;;;;;;9.78;77.81;95888.94;5115209;28;20437;-76
2022/10/29 03:59:48;;;;;;;13.10;9.60;;;;;;;9.72;78.04;95892.78;5114909;28;20446;-76
2022/10/29 04:02:16;;;;;;;12.33;8.73;;;;;;;9.72;77.71;95900.66;5115106;28;20893;-76
2022/10/29 04:04:43;;;;;;;10.77;8.20;;;;;;;9.65;77.44;95902.00;5079051;28;20450;-76
2022/10/29 04:07:10;;;;;;;20.50;10.93;;;;;;;9.46;78.41;95898.88;5078809;28;20435;-76
2022/10/29 04:09:36;;;;;;;13.97;10.90;;;;;;;9.39;77.98;95903.69;5078709;28;20435;-75
2022/10/29 04:12:04;;;;;;;16.93;11.23;;;;;;;9.17;79.24;95904.19;5115092;28;20446;-76
2022/10/29 04:14:30;;;;;;;13.67;10.10;;;;;;;8.88;79.95;95910.41;5062380;28;20451;-76
2022/10/29 04:16:58;;;;;;;18.80;10.90;;;;;;;8.58;81.36;95916.56;5114663;28;20575;-76
2022/10/29 04:19:26;;;;;;;19.10;11.30;;;;;;;8.45;82.04;95925.25;5061858;28;20435;-76
2022/10/29 04:21:56;;;;;;;16.47;11.80;;;;;;;8.44;81.55;95919.19;5078652;28;20450;-76
2022/10/29 04:24:22;;;;;;;20.03;11.57;;;;;;;8.49;81.38;95921.53;5114730;28;20436;-76
2022/10/29 04:26:49;;;;;;;15.00;9.40;;;;;;;8.47;82.15;95918.16;5114877;28;20481;-76
2022/10/29 04:29:16;;;;;;;16.70;10.97;;;;;;;8.49;82.08;95927.59;5114515;28;20795;-76
2022/10/29 04:31:42;;;;;;;15.13;9.80;;;;;;;8.61;82.07;95929.47;5114438;28;20441;-76
2022/10/29 04:34:09;;;;;;;15.73;8.30;;;;;;;8.53;80.86;95928.25;5114777;28;20509;-76
2022/10/29 04:36:37;;;;;;;22.53;9.97;;;;;;;8.57;81.59;95930.59;5114801;28;20453;-76
2022/10/29 04:39:04;;;;;;;18.60;10.27;;;;;;;8.63;81.90;95932.84;5114669;28;20447;-77
2022/10/29 04:41:31;;;;;;;19.00;9.60;;;;;;;8.75;81.89;95933.03;5114481;28;20800;-76
2022/10/29 04:43:58;;;;;;;13.00;8.30;;;;;;;8.82;81.58;95927.34;5114080;28;20496;-75
2022/10/29 04:46:25;;;;;;;9.90;8.13;;;;;;;8.89;81.51;95931.25;5061731;28;20478;-76
2022/10/29 04:48:52;;;;;;;20.37;9.30;;;;;;;9.00;80.66;95928.00;5114291;28;20446;-76
2022/10/29 04:51:20;;;;;;;15.10;10.50;;;;;;;9.08;80.05;95930.13;5114191;28;20535;-76
2022/10/29 04:53:49;;;;;;;14.53;9.37;;;;;;;9.14;79.45;95929.72;5113836;28;20980;-75
2022/10/29 04:56:15;;;;;;;12.97;8.80;;;;;;;9.19;78.89;95933.75;5113964;28;20452;-76
2022/10/29 04:58:42;;;;;;;13.10;8.87;;;;;;;9.22;79.10;95932.69;5113933;28;20526;-76
2022/10/29 05:01:09;;;;;;;16.23;8.00;;;;;;;9.23;79.79;95929.97;5113968;28;20462;-76
2022/10/29 05:03:36;;;;;;;10.60;7.50;;;;;;;9.24;80.17;95925.59;5061447;28;20473;-76
2022/10/29 05:06:04;;;;;;;8.93;6.10;;;;;;;9.26;80.27;95929.81;5112557;28;20479;-76
2022/10/29 05:08:30;;;;;;;6.43;5.60;;;;;;;9.27;80.29;95928.03;5061281;28;20849;-76
2022/10/29 05:11:02;;;;;;;7.27;5.30;;;;;;;9.23;81.13;95924.75;5113525;28;20507;-76
2022/10/29 05:13:29;;;;;;;7.30;6.13;;;;;;;9.53;82.50;95924.56;5113520;28;20939;-76
2022/10/29 05:15:55;;;;;;;11.63;6.03;;;;;;;10.23;79.61;95916.53;5113884;28;20496;-76
2022/10/29 05:18:22;;;;;;;6.57;5.53;;;;;;;11.10;76.08;95923.69;5113669;28;20439;-76
2022/10/29 05:20:53;;;;;;;6.63;5.37;;;;;;;11.94;72.06;95926.38;5113434;28;20828;-76
2022/10/29 05:23:19;;;;;;;5.77;5.17;;;;;;;12.56;69.08;95927.88;5113503;28;20686;-76
2022/10/29 05:25:48;;;;;;;10.90;4.93;;;;;;;13.43;65.56;95919.31;5113491;28;20891;-76
2022/10/29 05:28:18;;;;;;;5.70;4.73;;;;;;;14.41;62.58;95927.97;5113346;28;20435;-76
2022/10/29 05:30:46;;;;;;;5.57;4.90;;;;;;;15.07;59.07;95931.22;5113469;28;20450;-77
2022/10/29 05:33:16;;;;;;;6.10;5.13;;;;;;;15.66;57.14;95934.94;5113504;28;20990;-76
2022/10/29 05:35:43;;;;;;;5.53;4.90;;;;;;;15.98;55.70;95932.06;5113131;28;20549;-77
2022/10/29 05:38:10;;;;;;;5.70;4.87;;;;;;;16.26;54.13;95935.72;5113218;28;20447;-77
2022/10/29 05:40:38;;;;;;;6.30;4.50;;;;;;;16.61;53.30;95935.97;5113248;28;20537;-77
2022/10/29 05:43:05;;;;;;;7.03;4.57;;;;;;;16.96;51.99;95923.94;5116962;28;20922;-77
2022/10/29 05:45:33;;;;;;;7.13;4.63;;;;;;;17.12;50.96;95933.94;5112934;28;20482;-77
2022/10/29 05:48:02;;;;;;;5.97;4.20;;;;;;;17.16;50.22;95940.63;5112905;28;20937;-77
2022/10/29 05:50:29;;;;;;;4.93;4.43;;;;;;;17.22;50.03;95940.88;5113310;28;20447;-77
2022/10/29 05:52:56;;;;;;;7.13;4.80;;;;;;;17.36;49.59;95936.94;5113396;28;20473;-76
2022/10/29 05:55:24;;;;;;;7.77;4.40;;;;;;;17.32;49.22;95941.69;5112858;28;20517;-77
2022/10/29 05:57:50;;;;;;;4.87;4.40;;;;;;;17.29;49.66;95949.94;5113393;28;20439;-77
2022/10/29 06:00:18;;;;;;;5.80;4.80;;;;;;;17.17;50.46;95950.25;5112745;28;20961;-77
2022/10/29 06:02:46;;;;;;;4.53;4.10;;;;;;;17.02;50.11;95937.44;5113584;28;20465;-77
2022/10/29 06:05:12;;;;;;;6.90;5.00;;;;;;;17.12;50.78;95948.06;5112781;28;20454;-77
2022/10/29 06:07:39;;;;;;;4.77;4.27;;;;;;;17.24;50.67;95952.19;5112747;28;20504;-76
2022/10/29 06:10:07;;;;;;;5.37;4.60;;;;;;;17.29;50.17;95951.75;5112962;28;20454;-77
2022/10/29 06:12:34;;;;;;;7.40;5.30;;;;;;;17.30;50.02;95954.25;5112628;28;20856;-77
2022/10/29 06:15:01;;;;;;;5.17;4.67;;;;;;;17.37;50.29;95956.34;5060221;28;20446;-77
2022/10/29 06:17:28;;;;;;;5.83;4.90;;;;;;;17.40;50.36;95966.66;5112425;28;20457;-77
2022/10/29 06:19:56;;;;;;;7.07;5.40;;;;;;;17.52;50.31;95962.84;5112283;28;20457;-77
2022/10/29 06:22:23;;;;;;;5.37;4.83;;;;;;;17.53;49.66;95953.88;5112519;28;20450;-76
2022/10/29 06:24:49;;;;;;;6.90;4.80;;;;;;;17.45;49.69;95956.44;5093103;28;20434;-76
2022/10/29 06:27:16;;;;;;;7.20;5.77;;;;;;;17.30;50.25;95956.06;5112373;28;20483;-76
2022/10/29 06:29:43;;;;;;;7.23;5.90;;;;;;;17.12;50.99;95956.00;5112673;28;20446;-77
2022/10/29 06:32:10;;;;;;;7.17;5.60;;;;;;;17.12;51.41;95958.66;5112368;28;20451;-77
2022/10/29 06:34:36;;;;;;;6.33;5.70;;;;;;;17.05;51.32;95954.88;5112444;28;20457;-77
2022/10/29 06:37:04;;;;;;;7.33;6.63;;;;;;;17.04;52.07;95953.22;5112336;28;20523;-76
2022/10/29 06:39:31;;;;;;;8.07;6.73;;;;;;;17.17;51.37;95950.25;5112317;28;20448;-76
2022/10/29 06:41:58;;;;;;;8.53;6.20;;;;;;;17.15;51.71;95949.56;5059688;28;20503;-77
2022/10/29 06:44:25;;;;;;;8.10;6.17;;;;;;;16.96;51.55;95942.50;5076427;28;20494;-76
2022/10/29 06:46:51;;;;;;;6.40;5.80;;;;;;;16.89;51.87;95947.53;5059320;28;21036;-77
2022/10/29 06:49:18;;;;;;;8.60;5.77;;;;;;;16.83;52.10;95944.63;5112218;28;20447;-76
2022/10/29 06:51:45;;;;;;;7.60;5.73;;;;;;;16.83;52.43;95945.47;5059811;28;20502;-76
2022/10/29 06:54:14;;;;;;;5.50;4.97;;;;;;;16.75;52.41;95953.28;5112083;28;20476;-77
2022/10/29 06:56:41;;;;;;;10.47;7.00;;;;;;;16.62;53.28;95942.94;5112047;28;20455;-76
2022/10/29 06:59:08;;;;;;;32.70;10.10;;;;;;;16.32;54.67;95948.41;5111948;28;20983;-76
2022/10/29 07:01:34;;;;;;;15.90;10.67;;;;;;;15.48;57.36;95950.56;5112332;28;20439;-77
2022/10/29 07:04:01;;;;;;;10.53;9.43;;;;;;;15.03;58.96;95944.78;5112165;28;20488;-76
2022/10/29 07:06:31;;;;;;;16.13;10.70;;;;;;;14.83;59.70;95949.16;5111679;28;20483;-77
2022/10/29 07:08:58;;;;;;;19.90;10.27;;;;;;;14.25;61.57;95959.28;5112448;28;20843;-76
2022/10/29 07:11:26;;;;;;;17.37;10.30;;;;;;;13.74;63.77;95953.78;5111897;28;20512;-76
2022/10/29 07:13:53;;;;;;;13.33;9.27;;;;;;;13.49;64.81;95955.75;5111629;28;20439;-77
2022/10/29 07:16:19;;;;;;;15.33;8.70;;;;;;;12.40;68.43;95965.03;5092591;28;20427;-77
2022/10/29 07:18:46;;;;;;;21.60;10.93;;;;;;;12.44;68.52;95958.63;5112127;28;20457;-76
2022/10/29 07:21:13;;;;;;;14.10;10.17;;;;;;;12.65;69.28;95964.88;5112117;28;20443;-76
2022/10/29 07:23:40;;;;;;;17.70;10.33;;;;;;;12.78;68.79;95961.34;5059434;28;20525;-76
2022/10/29 07:26:07;;;;;;;11.90;9.33;;;;;;;12.86;68.07;95970.31;5111454;28;20479;-76
2022/10/29 07:28:35;;;;;;;12.70;9.47;;;;;;;13.00;67.96;95972.72;5112299;28;20434;-76
2022/10/29 07:31:02;;;;;;;12.33;8.33;;;;;;;13.00;67.52;95977.97;5115857;28;20443;-76
2022/10/29 07:33:29;;;;;;;11.47;8.30;;;;;;;12.79;68.54;95971.75;5115745;28;20439;-76
2022/10/29 07:35:57;;;;;;;12.70;7.60;;;;;;;12.87;68.23;95979.06;5115459;28;20577;-76
2022/10/29 07:38:24;;;;;;;10.13;8.13;;;;;;;12.88;68.16;95970.19;5079471;28;20520;-76
2022/10/29 07:40:51;;;;;;;9.90;7.17;;;;;;;12.82;68.26;95971.50;5115778;28;20442;-76
2022/10/29 07:43:19;;;;;;;11.90;8.43;;;;;;;12.87;68.83;95969.34;5115392;28;20438;-76
2022/10/29 07:45:49;;;;;;;10.93;8.33;;;;;;;12.90;68.39;95970.91;5114923;28;20445;-76
2022/10/29 07:48:17;;;;;;;12.30;8.30;;;;;;;12.97;68.38;95962.41;5062996;28;20454;-76
2022/10/29 07:50:44;;;;;;;12.00;8.30;;;;;;;12.76;68.60;95971.16;5115311;28;20468;-76
2022/10/29 07:53:11;;;;;;;19.50;9.40;;;;;;;12.86;69.40;95959.78;5114824;28;20494;-77
2022/10/29 07:55:38;;;;;;;12.90;8.93;;;;;;;12.46;70.49;95953.25;5115120;28;20447;-77
2022/10/29 07:58:07;;;;;;;14.70;8.43;;;;;;;12.60;70.52;95953.03;5115201;28;20924;-76
2022/10/29 08:00:36;;;;;;;18.43;9.30;;;;;;;12.69;69.34;95952.31;5115222;28;20440;-76
2022/10/29 08:03:05;;;;;;;31.13;10.70;;;;;;;12.88;69.09;95943.84;5115068;28;20495;-77
2022/10/29 08:05:32;;;;;;;17.20;9.20;;;;;;;13.00;68.78;95956.91;5114846;28;20441;-76
2022/10/29 08:07:59;;;;;;;12.37;9.87;;;;;;;13.20;67.76;95957.19;5114860;28;20483;-77
2022/10/29 08:10:26;;;;;;;15.63;8.17;;;;;;;13.19;67.81;95955.50;5114824;28;20499;-76
2022/10/29 08:12:55;;;;;;;12.43;8.97;;;;;;;13.38;67.43;95955.75;5114783;28;20503;-76
2022/10/29 08:15:22;;;;;;;22.77;10.40;;;;;;;13.63;66.66;95947.59;5114611;28;20443;-76
2022/10/29 08:17:50;;;;;;;19.13;9.43;;;;;;;13.92;66.10;95942.59;5114708;28;20443;-76
2022/10/29 08:20:19;;;;;;;9.93;7.97;;;;;;;14.13;65.10;95945.25;5114611;28;20926;-77
2022/10/29 08:22:46;;;;;;;15.83;8.27;;;;;;;14.42;64.67;95944.66;5114584;28;20443;-76
2022/10/29 08:25:14;;;;;;;23.67;8.50;;;;;;;14.66;63.47;95942.66;5114708;28;20445;-76
2022/10/29 08:27:41;;;;;;;10.40;7.60;;;;;;;14.75;61.92;95941.88;5114583;28;20544;-76
2022/10/29 08:30:09;;;;;;;10.43;7.60;;;;;;;14.71;62.69;95935.16;5114457;28;20465;-76
2022/10/29 08:32:36;;;;;;;11.47;7.63;;;;;;;14.60;63.06;95927.31;5062528;28;20457;-77
2022/10/29 08:35:03;;;;;;;17.50;8.00;;;;;;;14.94;62.96;95927.09;5114560;28;20458;-76
2022/10/29 08:37:31;;;;;;;13.33;8.30;;;;;;;15.17;62.27;95923.31;5114219;28;20442;-76
2022/10/29 08:39:58;;;;;;;13.20;9.17;;;;;;;15.25;61.90;95927.94;5114678;28;20446;-76
2022/10/29 08:42:41;;;;;;;17.57;8.53;;;;;;;15.50;61.33;95923.00;5114328;28;20443;-77
2022/10/29 08:45:20;;;;;;;12.60;8.10;;;;;;;15.81;59.90;95917.69;5114124;28;20450;-77
2022/10/29 08:48:08;;;;;;;22.30;8.50;;;;;;;16.10;59.21;95915.91;5113936;28;20482;-77
2022/10/29 08:50:40;;;;;;;16.53;7.63;;;;;;;16.43;58.27;95914.63;5034358;28;20448;-77
2022/10/29 08:53:14;;;;;;;10.37;7.80;;;;;;;16.59;57.26;95914.06;5114054;28;20713;-77
2022/10/29 08:55:42;;;;;;;14.43;7.83;;;;;;;16.83;56.98;95912.81;5113969;28;20445;-77
2022/10/29 08:58:19;;;;;;;16.40;8.13;;;;;;;17.03;56.87;95906.47;5061508;28;20671;-77
2022/10/29 09:00:51;;;;;;;13.13;8.43;;;;;;;17.20;55.93;95911.03;5113884;28;20449;-75
2022/10/29 09:03:18;;;;;;;14.20;9.13;;;;;;;17.18;55.32;95907.69;5113603;28;20510;-74
2022/10/29 09:05:57;;;;;;;15.07;9.47;;;;;;;17.19;54.94;95896.09;5114114;28;20495;-77
2022/10/29 09:08:34;;;;;;;11.67;10.13;;;;;;;17.38;55.08;95902.31;5113470;28;20494;-77
2022/10/29 09:11:12;;;;;;;18.40;9.90;;;;;;;17.54;54.60;95900.66;5113926;28;20452;-77
2022/10/29 09:13:47;;;;;;;10.60;7.90;;;;;;;17.56;54.46;95905.81;5113835;28;20472;-77
2022/10/29 09:16:29;;;;;;;12.40;9.07;;;;;;;17.60;54.04;95901.88;5113846;28;20490;-77
2022/10/29 09:19:09;;;;;;;9.67;7.60;;;;;;;17.66;54.17;95898.66;5077391;28;20487;-77
2022/10/29 09:21:45;;;;;;;21.17;9.27;;;;;;;17.84;54.06;95898.69;5113988;28;20518;-77
2022/10/29 09:24:16;;;;;;;14.57;9.27;;;;;;;17.80;53.44;95897.34;5113557;28;20503;-77
2022/10/29 09:26:57;;;;;;;14.10;10.23;;;;;;;17.94;53.87;95887.03;5113226;28;20483;-77
2022/10/29 09:29:46;;;;;;;20.83;9.23;;;;;;;18.02;54.13;95885.44;5113303;28;20443;-77
2022/10/29 09:32:19;;;;;;;13.40;8.90;;;;;;;18.11;53.01;95884.53;5030292;28;20454;-77
2022/10/29 09:34:49;;;;;;;26.00;10.10;;;;;;;18.02;52.79;95886.28;5030390;28;20461;-77
2022/10/29 09:37:20;;;;;;;12.03;9.50;;;;;;;18.02;53.38;95885.44;5030268;28;20937;-77
2022/10/29 09:39:48;;;;;;;32.60;12.27;;;;;;;18.02;53.29;95873.00;5030287;28;20852;-77
2022/10/29 09:42:19;;;;;;;14.63;11.03;;;;;;;17.98;53.81;95868.16;4981047;28;20447;-77
2022/10/29 09:44:51;;;;;;;14.77;9.87;;;;;;;18.07;53.29;95876.03;5029961;28;20450;-77
2022/10/29 09:47:33;;;;;;;12.87;9.23;;;;;;;18.03;52.91;95860.56;5013894;28;20484;-78
2022/10/29 09:50:11;;;;;;;32.47;11.53;;;;;;;18.03;53.51;95865.88;5030125;28;20455;-77
2022/10/29 09:52:42;;;;;;;19.13;11.50;;;;;;;17.96;53.51;95863.00;5029359;28;20526;-78
2022/10/29 09:55:20;;;;;;;19.70;11.50;;;;;;;17.93;52.95;95856.16;5030153;28;20472;-77
2022/10/29 09:57:48;;;;;;;17.93;10.90;;;;;;;18.08;53.16;95852.97;5013153;28;20422;-75
2022/10/29 10:00:20;;;;;;;13.43;10.00;;;;;;;18.23;53.28;95851.44;5029944;28;20443;-76
2022/10/29 10:02:53;;;;;;;22.03;10.80;;;;;;;18.37;52.81;95842.91;5029857;28;20439;-77
2022/10/29 10:05:25;;;;;;;25.17;11.30;;;;;;;18.53;52.77;95839.56;5029819;28;20934;-77
2022/10/29 10:08:06;;;;;;;21.53;11.77;;;;;;;18.61;51.86;95836.09;5029733;28;21004;-77
2022/10/29 10:10:36;;;;;;;24.63;10.40;;;;;;;18.60;52.07;95831.78;5105851;28;20521;-77
2022/10/29 10:13:05;;;;;;;13.23;10.50;;;;;;;18.68;51.17;95827.38;5112589;28;20486;-77
2022/10/29 10:15:34;;;;;;;15.93;8.77;;;;;;;18.72;51.45;95820.75;5059786;28;20446;-77
2022/10/29 10:18:02;;;;;;;17.23;10.33;;;;;;;18.78;52.08;95819.28;5112473;28;20968;-77
2022/10/29 10:20:35;;;;;;;17.40;10.37;;;;;;;18.77;51.70;95817.63;5112746;28;20516;-77
2022/10/29 10:23:19;;;;;;;23.17;10.60;;;;;;;18.79;51.19;95810.31;5112352;28;20956;-77
2022/10/29 10:25:48;;;;;;;19.20;10.83;;;;;;;18.82;51.57;95796.72;5066841;28;20969;-77
2022/10/29 10:28:20;;;;;;;16.90;9.97;;;;;;;18.87;51.78;95802.41;5059569;28;21005;-77
2022/10/29 10:31:06;;;;;;;16.37;10.97;;;;;;;18.94;51.78;95794.59;5112170;28;20446;-77
2022/10/29 10:33:36;;;;;;;17.43;10.80;;;;;;;18.98;51.84;95786.16;5112167;28;20863;-77
2022/10/29 10:36:05;;;;;;;21.20;10.60;;;;;;;18.92;51.29;95780.63;5112663;28;20933;-77
2022/10/29 10:38:39;;;;;;;16.70;10.57;;;;;;;19.03;51.13;95788.31;5112495;28;20941;-77
2022/10/29 10:41:10;;;;;;;16.17;11.80;;;;;;;19.11;51.62;95772.41;5112457;28;20491;-77
2022/10/29 10:43:41;;;;;;;19.53;10.77;;;;;;;19.16;50.92;95770.94;5112183;28;20446;-77
2022/10/29 10:46:14;;;;;;;19.20;10.10;;;;;;;19.19;51.21;95775.94;5112373;28;20708;-77
2022/10/29 10:48:41;;;;;;;27.40;10.60;;;;;;;19.24;50.59;95772.78;5060784;28;20486;-77
2022/10/29 10:51:12;;;;;;;16.83;11.83;;;;;;;19.28;51.00;95763.47;5059625;28;20827;-77
2022/10/29 10:53:40;;;;;;;15.80;12.80;;;;;;;19.25;50.17;95758.47;5112389;28;20965;-77
2022/10/29 10:56:17;;;;;;;21.67;12.77;;;;;;;19.30;50.03;95763.31;5112381;28;20535;-77
2022/10/29 10:58:51;;;;;;;10.93;6.60;;;;;;;19.32;50.24;95753.34;5112136;28;20482;-77
2022/10/29 11:01:22;;;;;;;9.20;6.70;;;;;;;19.22;50.06;95752.66;5112318;28;20485;-77
2022/10/29 11:03:57;;;;;;;12.40;8.10;;;;;;;19.11;50.69;95745.81;5113166;28;20439;-77
2022/10/29 11:06:28;;;;;;;25.43;9.10;;;;;;;19.31;50.87;95747.19;5116212;28;20501;-77
2022/10/29 11:09:00;;;;;;;9.50;7.57;;;;;;;19.35;50.66;95731.72;5115989;28;20483;-77
2022/10/29 11:11:32;;;;;;;34.17;8.20;;;;;;;19.41;50.21;95725.75;5116029;28;20443;-77
2022/10/29 11:14:04;;;;;;;11.50;6.90;;;;;;;19.53;49.49;95729.78;5079805;28;20446;-77
2022/10/29 11:16:41;;;;;;;12.23;7.97;;;;;;;19.66;49.64;95729.28;5079677;28;20503;-77
2022/10/29 11:19:20;;;;;;;15.87;6.40;;;;;;;19.65;48.76;95724.97;5116206;28;20534;-76
2022/10/29 11:21:59;;;;;;;9.77;6.00;;;;;;;19.81;48.54;95719.66;5115759;28;20442;-77
2022/10/29 11:24:33;;;;;;;12.67;7.40;;;;;;;19.93;48.73;95723.63;5115701;28;20443;-77
2022/10/29 11:27:06;;;;;;;6.67;5.97;;;;;;;19.72;47.38;95708.19;5116376;28;20470;-77
2022/10/29 11:29:43;;;;;;;12.93;6.23;;;;;;;19.82;48.13;95705.34;5115939;28;20443;-77
2022/10/29 11:32:15;;;;;;;6.50;5.87;;;;;;;19.98;47.72;95701.84;5115338;28;20871;-77
2022/10/29 11:34:48;;;;;;;15.90;5.80;;;;;;;20.02;46.67;95688.03;5115772;28;20498;-77
2022/10/29 11:37:21;;;;;;;9.27;4.97;;;;;;;20.17;45.74;95682.81;5079599;28;20439;-77
2022/10/29 11:39:53;;;;;;;5.50;4.90;;;;;;;20.25;46.07;95688.16;5115762;28;20964;-77
2022/10/29 11:42:21;;;;;;;9.27;5.50;;;;;;;20.30;45.72;95683.13;5115525;28;20450;-77